createdAt,value
2023-02-11T00:00:56.488Z,102266.50
2023-02-11T00:03:26.340Z,102259.97
2023-02-11T00:06:08.707Z,102256.09
2023-02-11T00:08:39.665Z,102256.34
2023-02-11T00:11:14.500Z,102261.94
2023-02-11T00:13:45.452Z,102249.78
2023-02-11T00:16:21.376Z,102258.06
2023-02-11T00:18:49.163Z,102242.44
2023-02-11T00:21:24.742Z,102250.72
2023-02-11T00:23:58.726Z,102241.28
2023-02-11T00:26:32.831Z,102248.75
2023-02-11T00:29:00.777Z,102250.84
2023-02-11T00:31:33.661Z,102247.56
2023-02-11T00:34:00.783Z,102245.94
2023-02-11T00:36:36.526Z,102235.66
2023-02-11T00:39:10.366Z,102235.66
2023-02-11T00:41:37.699Z,102230.75
2023-02-11T00:44:05.195Z,102218.38
2023-02-11T00:46:35.560Z,102220.47
2023-02-11T00:49:06.156Z,102221.78
2023-02-11T00:51:33.259Z,102224.66
2023-02-11T00:54:01.259Z,102223.03
2023-02-11T00:56:28.409Z,102217.09
2023-02-11T00:58:55.674Z,102218.94
2023-02-11T01:01:22.778Z,102210.31
2023-02-11T01:03:53.194Z,102215.94
2023-02-11T01:06:23.949Z,102209.97
2023-02-11T01:08:51.000Z,102200.28
2023-02-11T01:11:22.600Z,102200.50
2023-02-11T01:13:50.979Z,102207.72
2023-02-11T01:16:22.784Z,102203.41
2023-02-11T01:18:50.300Z,102196.41
2023-02-11T01:21:18.109Z,102190.44
2023-02-11T01:24:05.203Z,102191.50
2023-02-11T01:26:32.365Z,102173.78
2023-02-11T01:29:36.877Z,102165.13
2023-02-11T01:32:09.429Z,102169.69
2023-02-11T01:34:36.843Z,102172.00
2023-02-11T01:37:08.001Z,102173.88
2023-02-11T01:39:40.767Z,102161.50
2023-02-11T01:42:13.296Z,102168.16
2023-02-11T01:44:43.640Z,102166.53
2023-02-11T01:47:16.414Z,102170.28
2023-02-11T01:50:07.714Z,102168.59
2023-02-11T01:52:42.154Z,102165.34
2023-02-11T01:55:13.393Z,102164.53
2023-02-11T01:58:05.541Z,102174.47
2023-02-11T02:00:40.150Z,102174.94
2023-02-11T02:03:18.148Z,102181.12
2023-02-11T02:06:06.444Z,102175.94
2023-02-11T02:08:59.791Z,102171.06
2023-02-11T02:11:29.980Z,102170.25
2023-02-11T02:14:04.304Z,102168.59
2023-02-11T02:16:35.425Z,102160.78
2023-02-11T02:19:27.533Z,102167.22
2023-02-11T02:22:19.848Z,102170.13
2023-02-11T02:25:08.121Z,102169.31
2023-02-11T02:34:31.639Z,102158.19
2023-02-11T02:37:40.641Z,102147.09
2023-02-11T02:40:41.404Z,102149.75
2023-02-11T02:43:46.804Z,102147.56
2023-02-11T02:46:54.694Z,102143.03
2023-02-11T02:49:29.723Z,102140.78
2023-02-11T02:52:07.080Z,102137.28
2023-02-11T02:58:33.234Z,102148.47
2023-02-11T03:01:54.924Z,102139.81
2023-02-11T03:10:56.953Z,102131.44
2023-02-11T03:13:32.622Z,102115.56
2023-02-11T03:16:07.388Z,102119.31
2023-02-11T03:18:43.433Z,102119.31
2023-02-11T03:21:18.269Z,102110.66
2023-02-11T03:27:44.795Z,102110.91
2023-02-11T03:30:35.733Z,102107.41
2023-02-11T03:33:40.378Z,102105.19
2023-02-11T03:40:03.058Z,102113.69
2023-02-11T03:42:39.133Z,102101.31
2023-02-11T03:45:11.148Z,102106.69
2023-02-11T03:54:36.805Z,102082.44
2023-02-11T03:57:07.991Z,102081.59
2023-02-11T04:00:01.414Z,102077.06
2023-02-11T04:02:32.517Z,102078.31
2023-02-11T04:08:34.917Z,102068.88
2023-02-11T04:11:24.136Z,102065.62
2023-02-11T04:14:13.976Z,102062.31
2023-02-11T04:26:33.829Z,102048.81
2023-02-11T04:32:22.763Z,102056.28
2023-02-11T04:34:55.491Z,102049.25
2023-02-11T04:37:26.437Z,102040.63
2023-02-11T04:40:08.710Z,102042.50
2023-02-11T04:45:57.689Z,102025.59
2023-02-11T04:48:31.471Z,102031.44
2023-02-11T04:51:17.417Z,102034.09
2023-02-11T04:53:44.798Z,102031.44
2023-02-11T04:56:12.243Z,102034.09
2023-02-11T04:58:42.998Z,102027.13
2023-02-11T05:01:12.510Z,102021.75
2023-02-11T05:03:46.618Z,102027.13
2023-02-11T05:06:18.460Z,102022.78
2023-02-11T05:08:51.852Z,102034.31
2023-02-11T05:11:44.168Z,102025.91
2023-02-11T05:14:34.724Z,102036.19
2023-02-11T05:17:21.621Z,102024.88
2023-02-11T05:19:50.028Z,102032.12
2023-02-11T05:22:22.192Z,102032.12
2023-02-11T05:24:50.733Z,102028.03
2023-02-11T05:27:18.274Z,102017.22
2023-02-11T05:29:50.414Z,102018.44
2023-02-11T05:32:17.627Z,102019.69
2023-02-11T05:34:49.576Z,102013.91
2023-02-11T05:37:38.888Z,102016.41
2023-02-11T05:40:07.124Z,102020.47
2023-02-11T05:42:34.320Z,102030.28
2023-02-11T05:45:08.397Z,102026.50
2023-02-11T05:47:39.218Z,102023.72
2023-02-11T05:50:10.054Z,102031.66
2023-02-11T05:52:42.845Z,102026.44
2023-02-11T05:55:10.506Z,102026.81
2023-02-11T05:57:41.532Z,102034.41
2023-02-11T06:00:16.047Z,102024.84
2023-02-11T06:02:47.257Z,102038.84
2023-02-11T06:05:17.988Z,102034.88
2023-02-11T06:07:45.542Z,102027.22
2023-02-11T06:10:13.185Z,102026.75
2023-02-11T06:12:41.488Z,102022.81
2023-02-11T06:15:09.436Z,102023.22
2023-02-11T06:17:41.121Z,102023.34
2023-02-11T06:20:10.696Z,102021.22
2023-02-11T06:22:38.553Z,102024.06
2023-02-11T06:25:12.436Z,102023.56
2023-02-11T06:27:45.840Z,102026.84
2023-02-11T06:30:17.384Z,102022.06
2023-02-11T06:32:48.835Z,102015.19
2023-02-11T06:35:15.846Z,102014.72
2023-02-11T06:37:43.397Z,102018.22
2023-02-11T06:40:12.259Z,102021.16
2023-02-11T06:42:39.624Z,102021.75
2023-02-11T06:45:08.845Z,102020.91
2023-02-11T06:47:37.729Z,102014.16
2023-02-11T06:50:04.697Z,102018.72
2023-02-11T06:52:36.088Z,102024.28
2023-02-11T06:55:02.779Z,102026.97
2023-02-11T06:57:31.128Z,102023.94
2023-02-11T06:59:58.385Z,102018.34
2023-02-11T07:02:25.590Z,102020.56
2023-02-11T07:04:56.021Z,102015.19
2023-02-11T07:07:22.712Z,102019.28
2023-02-11T07:09:55.126Z,102019.63
2023-02-11T07:12:24.747Z,102016.50
2023-02-11T07:14:51.927Z,102009.03
2023-02-11T07:17:22.100Z,102006.72
2023-02-11T07:19:49.601Z,102011.84
2023-02-11T07:22:16.467Z,102008.69
2023-02-11T07:24:46.393Z,102007.41
2023-02-11T07:27:16.219Z,102008.22
2023-02-11T07:29:45.792Z,102011.06
2023-02-11T07:32:15.530Z,101999.84
2023-02-11T07:34:45.634Z,101998.31
2023-02-11T07:37:15.655Z,102000.53
2023-02-11T07:39:45.710Z,101994.94
2023-02-11T07:42:15.243Z,101995.28
2023-02-11T07:44:44.987Z,101986.75
2023-02-11T07:49:57.852Z,101989.56
2023-02-11T07:52:25.026Z,101989.91
2023-02-11T07:57:30.803Z,101986.84
2023-02-11T08:00:00.302Z,101990.94
2023-02-11T08:02:30.054Z,101985.16
2023-02-11T08:05:01.009Z,101989.22
2023-02-11T08:07:28.682Z,101983.63
2023-02-11T08:10:02.119Z,101986.41
2023-02-11T08:12:28.906Z,101977.28
2023-02-11T08:14:55.723Z,101979.50
2023-02-11T08:17:23.019Z,101973.66
2023-02-11T08:19:50.649Z,101975.28
2023-02-11T08:22:20.611Z,101976.94
2023-02-11T08:24:49.171Z,101988.00
2023-02-11T08:27:23.607Z,101988.84
2023-02-11T08:29:54.883Z,101984.62
2023-02-11T08:32:26.551Z,101979.81
2023-02-11T08:34:54.126Z,101980.88
2023-02-11T08:37:22.025Z,101984.97
2023-02-11T08:39:54.997Z,101979.59
2023-02-11T08:42:22.035Z,101984.47
2023-02-11T08:44:48.978Z,101981.22
2023-02-11T08:47:19.114Z,101973.38
2023-02-11T08:49:49.287Z,101976.66
2023-02-11T08:52:19.726Z,101979.91
2023-02-11T08:54:46.566Z,101982.94
2023-02-11T08:57:16.522Z,101980.84
2023-02-11T08:59:46.799Z,101980.59
2023-02-11T09:02:14.704Z,101974.75
2023-02-11T09:04:42.018Z,101976.63
2023-02-11T09:07:08.722Z,101980.13
2023-02-11T09:09:35.818Z,101967.28
2023-02-11T09:12:06.514Z,101978.03
2023-02-11T09:14:34.554Z,101971.34
2023-02-11T09:17:01.976Z,101957.91
2023-02-11T09:19:29.494Z,101957.69
2023-02-11T09:22:00.107Z,101963.06
2023-02-11T09:24:30.466Z,101975.44
2023-02-11T09:27:01.162Z,101970.06
2023-02-11T09:29:28.365Z,101964.44
2023-02-11T09:31:58.728Z,101963.88
2023-02-11T09:34:28.656Z,101966.91
2023-02-11T09:36:55.885Z,101957.69
2023-02-11T09:39:23.824Z,101959.31
2023-02-11T09:42:20.578Z,101950.78
2023-02-11T09:44:48.483Z,101947.28
2023-02-11T09:50:44.724Z,101934.87
2023-02-11T09:53:39.276Z,101927.28
2023-02-11T09:56:13.137Z,101925.44
2023-02-11T09:58:43.255Z,101913.84
2023-02-11T10:01:45.623Z,101917.94
2023-02-11T10:13:37.478Z,101909.69
2023-02-11T10:16:26.725Z,101910.50
2023-02-11T10:19:21.941Z,101909.19
2023-02-11T10:22:15.131Z,101901.69
2023-02-11T10:24:52.489Z,101885.56
2023-02-11T10:27:23.681Z,101882.66
2023-02-11T10:30:16.967Z,101900.16
2023-02-11T10:33:07.307Z,101899.09
2023-02-11T10:35:33.990Z,101897.25
2023-02-11T10:38:01.089Z,101896.16
2023-02-11T10:40:30.414Z,101887.84
2023-02-11T10:43:22.773Z,101880.38
2023-02-11T10:45:56.104Z,101884.22
2023-02-11T10:48:47.177Z,101878.38
2023-02-11T10:51:14.741Z,101870.59
2023-02-11T10:53:46.821Z,101873.63
2023-02-11T10:56:47.994Z,101865.06
2023-02-11T10:59:34.840Z,101862.69
2023-02-11T11:02:27.929Z,101857.06
2023-02-11T11:05:20.101Z,101855.50
2023-02-11T11:08:13.406Z,101853.66
2023-02-11T11:10:44.611Z,101842.38
2023-02-11T11:13:36.029Z,101856.69
2023-02-11T11:16:12.862Z,101851.03
2023-02-11T11:18:41.715Z,101855.59
2023-02-11T11:21:16.816Z,101848.59
2023-02-11T11:23:55.467Z,101836.19
2023-02-11T11:26:23.048Z,101849.09
2023-02-11T11:28:52.501Z,101841.03
2023-02-11T11:31:24.339Z,101838.34
2023-02-11T11:33:55.752Z,101824.31
2023-02-11T11:36:31.299Z,101828.06
2023-02-11T11:39:03.729Z,101814.62
2023-02-11T11:41:36.334Z,101815.44
2023-02-11T11:44:41.856Z,101802.81
2023-02-11T11:47:11.936Z,101805.25
2023-02-11T11:49:56.567Z,101806.06
2023-02-11T11:52:32.908Z,101797.53
2023-02-11T11:55:18.608Z,101794.00
2023-02-11T11:57:45.576Z,101794.00
2023-02-11T12:00:24.277Z,101789.44
2023-02-11T12:03:16.126Z,101787.00
2023-02-11T12:05:50.221Z,101781.63
2023-02-11T12:08:22.595Z,101774.62
2023-02-11T12:11:05.268Z,101770.31
2023-02-11T12:13:36.894Z,101766.78
2023-02-11T12:16:33.579Z,101760.59
2023-02-11T12:19:10.716Z,101755.22
2023-02-11T12:21:51.518Z,101749.03
2023-02-11T12:24:49.395Z,101743.09
2023-02-11T12:27:39.321Z,101721.00
2023-02-11T12:30:41.568Z,101728.53
2023-02-11T12:33:29.982Z,101712.41
2023-02-11T12:36:05.848Z,101709.94
2023-02-11T12:38:57.476Z,101702.94
2023-02-11T12:41:37.853Z,101693.28
2023-02-11T12:44:16.582Z,101692.19
2023-02-11T12:47:24.854Z,101692.19
2023-02-11T12:50:24.721Z,101683.88
2023-02-11T12:53:06.311Z,101673.94
2023-02-11T12:55:48.102Z,101685.84
2023-02-11T12:58:27.331Z,101680.75
2023-02-11T13:01:11.276Z,101684.81
2023-02-11T13:03:46.276Z,101687.28
2023-02-11T13:06:17.629Z,101682.69
2023-02-11T13:08:58.018Z,101675.19
2023-02-11T13:11:27.716Z,101675.97
2023-02-11T13:14:14.190Z,101675.19
2023-02-11T13:16:47.326Z,101678.69
2023-02-11T13:19:44.370Z,101671.94
2023-02-11T13:22:20.335Z,101681.06
2023-02-11T13:25:06.031Z,101669.97
2023-02-11T13:28:15.068Z,101672.12
2023-02-11T13:30:42.623Z,101663.47
2023-02-11T13:33:37.061Z,101668.06
2023-02-11T13:36:07.821Z,101664.00
2023-02-11T13:38:40.200Z,101666.12
2023-02-11T13:41:33.841Z,101663.69
2023-02-11T13:44:12.190Z,101655.06
2023-02-11T13:46:56.560Z,101656.94
2023-02-11T13:49:38.629Z,101648.31
2023-02-11T13:52:18.809Z,101649.38
2023-02-11T13:54:51.518Z,101650.44
2023-02-11T13:57:24.204Z,101644.50
2023-02-11T14:00:03.856Z,101646.63
2023-02-11T14:02:40.021Z,101634.25
2023-02-11T14:05:16.353Z,101624.53
2023-02-11T14:08:06.261Z,101626.06
2023-02-11T14:11:04.548Z,101634.16
2023-02-11T14:13:56.089Z,101641.66
2023-02-11T14:16:37.826Z,101641.09
2023-02-11T14:19:10.549Z,101649.41
2023-02-11T14:21:43.381Z,101648.59
2023-02-11T14:24:13.611Z,101653.97
2023-02-11T14:27:00.833Z,101668.78
2023-02-11T14:29:54.151Z,101670.66
2023-02-11T14:32:43.038Z,101670.66
2023-02-11T14:35:25.315Z,101689.44
2023-02-11T14:38:01.214Z,101686.75
2023-02-11T14:40:49.297Z,101686.75
2023-02-11T14:43:36.296Z,101677.09
2023-02-11T14:46:10.769Z,101677.09
2023-02-11T14:48:45.059Z,101666.34
2023-02-11T14:51:20.176Z,101665.22
2023-02-11T14:53:50.910Z,101668.97
2023-02-11T14:56:29.185Z,101651.22
2023-02-11T14:58:59.827Z,101661.41
2023-02-11T15:01:41.152Z,101673.22
2023-02-11T15:04:26.644Z,101683.38
2023-02-11T15:06:55.926Z,101673.69
2023-02-11T15:09:40.644Z,101671.28
2023-02-11T15:12:27.056Z,101684.94
2023-02-11T15:14:56.819Z,101682.50
2023-02-11T15:17:26.247Z,101679.25
2023-02-11T15:20:00.382Z,101682.19
2023-02-11T15:22:36.088Z,101674.88
2023-02-11T15:25:14.638Z,101668.19
2023-02-11T15:27:47.879Z,101656.87
2023-02-11T15:30:24.047Z,101657.94
2023-02-11T15:32:59.226Z,101649.31
2023-02-11T15:35:39.520Z,101640.72
2023-02-11T15:38:11.153Z,101613.00
2023-02-11T15:40:52.157Z,101612.19
2023-02-11T15:43:40.150Z,101610.56
2023-02-11T15:46:14.176Z,101604.41
2023-02-11T15:48:48.314Z,101606.28
2023-02-11T15:51:21.450Z,101600.91
2023-02-11T15:53:49.569Z,101591.22
2023-02-11T15:56:22.629Z,101589.59
2023-02-11T15:58:49.795Z,101594.94
2023-02-11T16:01:17.016Z,101604.06
2023-02-11T16:03:50.191Z,101597.09
2023-02-11T16:06:26.816Z,101585.53
2023-02-11T16:09:21.198Z,101595.47
2023-02-11T16:11:50.504Z,101602.94
2023-02-11T16:14:27.964Z,101604.03
2023-02-11T16:17:35.382Z,101607.19
2023-02-11T16:20:02.346Z,101625.41
2023-02-11T16:22:31.787Z,101620.88
2023-02-11T16:25:02.528Z,101615.75
2023-02-11T16:27:34.621Z,101609.81
2023-02-11T16:30:01.672Z,101615.19
2023-02-11T16:32:35.760Z,101608.16
2023-02-11T16:35:11.472Z,101615.19
2023-02-11T16:37:42.670Z,101622.66
2023-02-11T16:40:13.505Z,101609.25
2023-02-11T16:42:43.265Z,101615.69
2023-02-11T16:45:18.216Z,101616.22
2023-02-11T16:48:32.860Z,101615.19
2023-02-11T16:51:00.186Z,101627.06
2023-02-11T16:56:47.211Z,101624.13
2023-02-11T16:59:16.318Z,101629.25
2023-02-11T17:01:44.573Z,101627.13
2023-02-11T17:04:31.759Z,101633.06
2023-02-11T17:07:37.233Z,101634.69
2023-02-11T17:10:08.400Z,101639.56
2023-02-11T17:12:36.004Z,101648.19
2023-02-11T17:15:19.092Z,101653.06
2023-02-11T17:17:55.557Z,101655.50
2023-02-11T17:20:22.957Z,101645.06
2023-02-11T17:23:00.406Z,101655.31
2023-02-11T17:25:32.307Z,101641.62
2023-02-11T17:28:06.583Z,101645.72
2023-02-11T17:30:40.842Z,101642.53
2023-02-11T17:33:23.081Z,101643.09
2023-02-11T17:36:19.001Z,101633.97
2023-02-11T17:38:47.151Z,101641.78
2023-02-11T17:44:50.817Z,101628.59
2023-02-11T17:47:31.840Z,101628.34
2023-02-11T17:53:45.390Z,101629.16
2023-02-11T17:56:15.585Z,101630.22
2023-02-11T17:58:46.362Z,101629.16
2023-02-11T18:01:20.004Z,101638.03
2023-02-11T18:03:49.900Z,101638.34
2023-02-11T18:06:54.312Z,101641.03
2023-02-11T18:09:22.562Z,101648.03
2023-02-11T18:11:50.290Z,101643.22
2023-02-11T18:14:21.536Z,101641.09
2023-02-11T18:16:55.350Z,101645.16
2023-02-11T18:19:22.447Z,101641.75
2023-02-11T18:21:49.305Z,101648.25
2023-02-11T18:24:21.213Z,101642.88
2023-02-11T18:26:50.405Z,101642.38
2023-02-11T18:29:17.942Z,101644.00
2023-02-11T18:31:48.457Z,101640.25
2023-02-11T18:34:20.100Z,101641.88
2023-02-11T18:36:47.039Z,101643.50
2023-02-11T18:39:13.906Z,101638.94
2023-02-11T18:41:43.974Z,101640.53
2023-02-11T18:44:12.529Z,101651.28
2023-02-11T18:46:45.624Z,101644.06
2023-02-11T18:49:12.360Z,101652.12
2023-02-11T18:51:46.205Z,101639.25
2023-02-11T18:54:13.577Z,101645.41
2023-02-11T18:56:42.826Z,101635.47
2023-02-11T19:02:31.645Z,101644.63
2023-02-11T19:05:01.134Z,101646.22
2023-02-11T19:07:34.706Z,101647.88
2023-02-11T19:10:13.059Z,101643.31
2023-02-11T19:12:42.595Z,101645.72
2023-02-11T19:15:12.560Z,101653.31
2023-02-11T19:17:50.714Z,101650.63
2023-02-11T19:21:02.830Z,101655.50
2023-02-11T19:23:32.172Z,101666.78
2023-02-11T19:26:03.996Z,101664.69
2023-02-11T19:38:58.316Z,101670.78
2023-02-11T19:41:45.274Z,101670.81
2023-02-11T19:50:38.230Z,101661.78
2023-02-11T19:53:27.126Z,101672.06
2023-02-11T19:55:56.010Z,101664.56
2023-02-11T19:58:28.137Z,101666.72
2023-02-11T20:04:12.324Z,101672.41
2023-02-11T20:07:01.152Z,101670.50
2023-02-11T20:20:05.564Z,101675.97
2023-02-11T20:26:01.066Z,101669.03
2023-02-11T20:44:18.016Z,101670.66
2023-02-11T20:56:27.710Z,101650.75
2023-02-11T20:59:36.673Z,101659.88
2023-02-11T21:06:03.717Z,101657.19
2023-02-11T21:08:51.049Z,101656.13
2023-02-11T21:11:40.297Z,101657.75
2023-02-11T21:24:41.249Z,101659.34
2023-02-11T21:27:47.686Z,101653.97
2023-02-11T21:30:54.259Z,101654.78
2023-02-11T21:33:52.828Z,101656.06
2023-02-11T21:37:00.979Z,101655.59
2023-02-11T21:39:37.736Z,101669.50
2023-02-11T21:42:09.652Z,101661.19
2023-02-11T21:44:38.536Z,101656.06
2023-02-11T21:54:13.752Z,101657.13
2023-02-11T21:56:44.964Z,101661.69
2023-02-11T22:02:45.062Z,101660.91
2023-02-11T22:05:33.979Z,101659.00
2023-02-11T22:08:43.070Z,101650.13
2023-02-11T22:14:50.734Z,101661.91
2023-02-11T22:21:17.788Z,101653.25
2023-02-11T22:24:23.656Z,101653.25
2023-02-11T22:27:36.110Z,101653.78
2023-02-11T22:33:32.198Z,101657.47
2023-02-11T22:39:59.999Z,101662.81
2023-02-11T22:49:02.715Z,101665.16
2023-02-11T22:51:35.828Z,101677.22
2023-02-11T22:54:45.130Z,101675.03
2023-02-11T23:04:26.739Z,101673.91
2023-02-11T23:16:42.101Z,101667.37
2023-02-11T23:22:49.520Z,101671.63
2023-02-11T23:32:17.063Z,101670.50
2023-02-11T23:42:05.454Z,101665.88
2023-02-11T23:44:41.165Z,101662.62
2023-02-11T23:47:46.779Z,101673.63
2023-02-11T23:50:35.907Z,101679.00
2023-02-11T23:53:48.353Z,101688.13
2023-02-11T23:56:38.024Z,101681.13
